sensor_id;sensor_type;location;lat;lon;timestamp;pressure;altitude;pressure_sealevel;temperature;humidity
54994;BME280;40891;47.242;8.648;2023-04-23T00:01:17;95853.53;;;14.05;80.90
54994;BME280;40891;47.242;8.648;2023-04-23T00:03:43;95848.28;;;13.93;78.98
54994;BME280;40891;47.242;8.648;2023-04-23T00:06:09;95848.69;;;13.86;79.78
54994;BME280;40891;47.242;8.648;2023-04-23T00:08:38;95849.25;;;13.90;80.54
54994;BME280;40891;47.242;8.648;2023-04-23T00:11:04;95845.22;;;13.91;81.48
54994;BME280;40891;47.242;8.648;2023-04-23T00:13:29;95848.00;;;13.91;82.14
54994;BME280;40891;47.242;8.648;2023-04-23T00:15:55;95847.78;;;13.94;86.30
54994;BME280;40891;47.242;8.648;2023-04-23T00:18:20;95847.91;;;13.85;87.50
54994;BME280;40891;47.242;8.648;2023-04-23T00:20:46;95848.81;;;13.77;90.13
54994;BME280;40891;47.242;8.648;2023-04-23T00:23:11;95855.38;;;13.74;89.15
54994;BME280;40891;47.242;8.648;2023-04-23T00:25:36;95853.53;;;13.71;93.29
54994;BME280;40891;47.242;8.648;2023-04-23T00:28:02;95848.66;;;13.65;96.05
54994;BME280;40891;47.242;8.648;2023-04-23T00:30:27;95850.59;;;13.59;95.46
54994;BME280;40891;47.242;8.648;2023-04-23T00:32:53;95852.53;;;13.53;95.07
54994;BME280;40891;47.242;8.648;2023-04-23T00:35:18;95855.63;;;13.55;96.07
54994;BME280;40891;47.242;8.648;2023-04-23T00:37:44;95858.88;;;13.54;97.37
54994;BME280;40891;47.242;8.648;2023-04-23T00:40:10;95857.78;;;13.46;97.93
54994;BME280;40891;47.242;8.648;2023-04-23T00:42:37;95854.91;;;13.26;99.29
54994;BME280;40891;47.242;8.648;2023-04-23T00:45:03;95853.94;;;13.14;100.00
54994;BME280;40891;47.242;8.648;2023-04-23T00:47:30;95859.16;;;13.07;100.00
54994;BME280;40891;47.242;8.648;2023-04-23T00:49:55;95869.88;;;12.99;100.00
54994;BME280;40891;47.242;8.648;2023-04-23T00:52:21;95862.50;;;12.96;100.00
54994;BME280;40891;47.242;8.648;2023-04-23T00:54:46;95862.78;;;12.98;100.00
54994;BME280;40891;47.242;8.648;2023-04-23T00:57:11;95861.34;;;13.03;100.00
54994;BME280;40891;47.242;8.648;2023-04-23T00:59:37;95858.72;;;12.99;100.00
54994;BME280;40891;47.242;8.648;2023-04-23T01:02:02;95863.16;;;12.91;100.00
54994;BME280;40891;47.242;8.648;2023-04-23T01:04:28;95870.28;;;12.92;100.00
54994;BME280;40891;47.242;8.648;2023-04-23T01:06:55;95870.28;;;12.92;100.00
54994;BME280;40891;47.242;8.648;2023-04-23T01:09:22;95874.03;;;12.89;100.00
54994;BME280;40891;47.242;8.648;2023-04-23T01:11:48;95876.91;;;12.94;100.00
54994;BME280;40891;47.242;8.648;2023-04-23T01:14:15;95881.81;;;12.85;100.00
54994;BME280;40891;47.242;8.648;2023-04-23T01:16:40;95881.16;;;12.90;100.00
54994;BME280;40891;47.242;8.648;2023-04-23T01:19:07;95884.91;;;12.87;100.00
54994;BME280;40891;47.242;8.648;2023-04-23T01:21:34;95886.31;;;12.82;100.00
54994;BME280;40891;47.242;8.648;2023-04-23T01:24:01;95891.44;;;12.84;100.00
54994;BME280;40891;47.242;8.648;2023-04-23T01:26:27;95892.78;;;12.74;100.00
54994;BME280;40891;47.242;8.648;2023-04-23T01:28:53;95895.75;;;12.70;100.00
54994;BME280;40891;47.242;8.648;2023-04-23T01:31:18;95894.69;;;12.68;100.00
54994;BME280;40891;47.242;8.648;2023-04-23T01:33:44;95893.53;;;12.60;100.00
54994;BME280;40891;47.242;8.648;2023-04-23T01:36:09;95891.69;;;12.57;100.00
54994;BME280;40891;47.242;8.648;2023-04-23T01:38:37;95905.03;;;12.53;100.00
54994;BME280;40891;47.242;8.648;2023-04-23T01:41:03;95911.28;;;12.48;100.00
54994;BME280;40891;47.242;8.648;2023-04-23T01:43:30;95915.00;;;12.45;100.00
54994;BME280;40891;47.242;8.648;2023-04-23T01:45:56;95915.78;;;12.45;100.00
54994;BME280;40891;47.242;8.648;2023-04-23T01:48:23;95920.31;;;12.43;100.00
54994;BME280;40891;47.242;8.648;2023-04-23T01:50:49;95923.44;;;12.36;100.00
54994;BME280;40891;47.242;8.648;2023-04-23T01:53:15;95922.22;;;12.37;100.00
54994;BME280;40891;47.242;8.648;2023-04-23T01:55:42;95927.00;;;12.36;100.00
54994;BME280;40891;47.242;8.648;2023-04-23T01:58:09;95929.50;;;12.34;100.00
54994;BME280;40891;47.242;8.648;2023-04-23T02:00:34;95929.50;;;12.34;100.00
54994;BME280;40891;47.242;8.648;2023-04-23T02:02:59;95928.25;;;12.35;100.00
54994;BME280;40891;47.242;8.648;2023-04-23T02:05:27;95931.53;;;12.34;100.00
54994;BME280;40891;47.242;8.648;2023-04-23T02:07:53;95922.16;;;12.46;100.00
54994;BME280;40891;47.242;8.648;2023-04-23T02:10:18;95921.16;;;12.34;100.00
54994;BME280;40891;47.242;8.648;2023-04-23T02:12:44;95917.09;;;12.35;100.00
54994;BME280;40891;47.242;8.648;2023-04-23T02:15:10;95920.38;;;12.34;100.00
54994;BME280;40891;47.242;8.648;2023-04-23T02:17:36;95930.88;;;12.15;100.00
54994;BME280;40891;47.242;8.648;2023-04-23T02:20:02;95933.81;;;12.11;100.00
54994;BME280;40891;47.242;8.648;2023-04-23T02:22:28;95933.72;;;12.06;100.00
54994;BME280;40891;47.242;8.648;2023-04-23T02:24:54;95925.06;;;12.04;100.00
54994;BME280;40891;47.242;8.648;2023-04-23T02:27:20;95925.78;;;12.13;100.00
54994;BME280;40891;47.242;8.648;2023-04-23T02:29:46;95925.47;;;12.11;100.00
54994;BME280;40891;47.242;8.648;2023-04-23T02:32:12;95923.47;;;12.12;100.00
54994;BME280;40891;47.242;8.648;2023-04-23T02:34:37;95928.31;;;12.02;100.00
54994;BME280;40891;47.242;8.648;2023-04-23T02:37:03;95925.72;;;11.99;100.00
54994;BME280;40891;47.242;8.648;2023-04-23T02:39:31;95928.50;;;11.99;100.00
54994;BME280;40891;47.242;8.648;2023-04-23T02:41:57;95923.03;;;12.04;100.00
54994;BME280;40891;47.242;8.648;2023-04-23T02:44:23;95925.06;;;12.04;100.00
54994;BME280;40891;47.242;8.648;2023-04-23T02:46:49;95926.50;;;11.99;100.00
54994;BME280;40891;47.242;8.648;2023-04-23T02:49:14;95920.72;;;12.03;100.00
54994;BME280;40891;47.242;8.648;2023-04-23T02:51:40;95919.56;;;11.95;100.00
54994;BME280;40891;47.242;8.648;2023-04-23T02:54:05;95929.78;;;11.89;100.00
54994;BME280;40891;47.242;8.648;2023-04-23T02:56:31;95926.88;;;11.83;100.00
54994;BME280;40891;47.242;8.648;2023-04-23T02:58:56;95913.06;;;11.89;100.00
54994;BME280;40891;47.242;8.648;2023-04-23T03:01:21;95911.19;;;11.95;100.00
54994;BME280;40891;47.242;8.648;2023-04-23T03:03:47;95912.38;;;12.03;100.00
54994;BME280;40891;47.242;8.648;2023-04-23T03:06:12;95918.13;;;11.99;100.00
54994;BME280;40891;47.242;8.648;2023-04-23T03:08:38;95920.59;;;11.97;100.00
54994;BME280;40891;47.242;8.648;2023-04-23T03:11:03;95919.06;;;11.96;100.00
54994;BME280;40891;47.242;8.648;2023-04-23T03:13:28;95915.63;;;12.01;100.00
54994;BME280;40891;47.242;8.648;2023-04-23T03:15:55;95913.22;;;11.94;100.00
54994;BME280;40891;47.242;8.648;2023-04-23T03:18:20;95912.91;;;11.92;100.00
54994;BME280;40891;47.242;8.648;2023-04-23T03:20:46;95907.50;;;11.89;100.00
54994;BME280;40891;47.242;8.648;2023-04-23T03:23:11;95907.78;;;11.91;100.00
54994;BME280;40891;47.242;8.648;2023-04-23T03:25:37;95901.22;;;12.03;100.00
54994;BME280;40891;47.242;8.648;2023-04-23T03:28:03;95905.78;;;11.91;100.00
54994;BME280;40891;47.242;8.648;2023-04-23T03:30:29;95902.28;;;11.82;100.00
54994;BME280;40891;47.242;8.648;2023-04-23T03:32:55;95901.22;;;11.79;100.00
54994;BME280;40891;47.242;8.648;2023-04-23T03:35:21;95898.13;;;11.77;100.00
54994;BME280;40891;47.242;8.648;2023-04-23T03:37:47;95902.16;;;11.76;100.00
54994;BME280;40891;47.242;8.648;2023-04-23T03:40:12;95896.28;;;11.74;100.00
54994;BME280;40891;47.242;8.648;2023-04-23T03:42:37;95897.53;;;11.73;100.00
54994;BME280;40891;47.242;8.648;2023-04-23T03:45:03;95896.41;;;11.80;100.00
54994;BME280;40891;47.242;8.648;2023-04-23T03:47:29;95891.97;;;11.73;100.00
54994;BME280;40891;47.242;8.648;2023-04-23T03:49:55;95898.78;;;11.72;100.00
54994;BME280;40891;47.242;8.648;2023-04-23T03:52:21;95902.50;;;11.69;100.00
54994;BME280;40891;47.242;8.648;2023-04-23T03:54:46;95910.22;;;11.65;100.00
54994;BME280;40891;47.242;8.648;2023-04-23T03:57:12;95914.28;;;11.64;100.00
54994;BME280;40891;47.242;8.648;2023-04-23T03:59:37;95916.72;;;11.62;100.00
54994;BME280;40891;47.242;8.648;2023-04-23T04:02:03;95914.91;;;11.59;100.00
54994;BME280;40891;47.242;8.648;2023-04-23T04:04:32;95900.97;;;11.59;100.00
54994;BME280;40891;47.242;8.648;2023-04-23T04:06:58;95894.78;;;11.64;100.00
54994;BME280;40891;47.242;8.648;2023-04-23T04:09:27;95887.16;;;11.64;100.00
54994;BME280;40891;47.242;8.648;2023-04-23T04:11:52;95890.16;;;11.61;100.00
54994;BME280;40891;47.242;8.648;2023-04-23T04:14:19;95896.00;;;11.63;100.00
54994;BME280;40891;47.242;8.648;2023-04-23T04:16:45;95892.13;;;11.70;100.00
54994;BME280;40891;47.242;8.648;2023-04-23T04:19:10;95889.34;;;11.70;100.00
54994;BME280;40891;47.242;8.648;2023-04-23T04:21:36;95886.09;;;11.71;100.00
54994;BME280;40891;47.242;8.648;2023-04-23T04:24:02;95887.47;;;11.76;100.00
54994;BME280;40891;47.242;8.648;2023-04-23T04:26:28;95875.97;;;11.83;100.00
54994;BME280;40891;47.242;8.648;2023-04-23T04:28:56;95883.72;;;11.79;100.00
54994;BME280;40891;47.242;8.648;2023-04-23T04:31:22;95886.69;;;11.75;100.00
54994;BME280;40891;47.242;8.648;2023-04-23T04:33:47;95880.84;;;11.73;100.00
54994;BME280;40891;47.242;8.648;2023-04-23T04:36:13;95883.13;;;11.75;100.00
54994;BME280;40891;47.242;8.648;2023-04-23T04:38:39;95884.34;;;11.83;100.00
54994;BME280;40891;47.242;8.648;2023-04-23T04:41:04;95879.50;;;11.83;100.00
54994;BME280;40891;47.242;8.648;2023-04-23T04:43:30;95881.50;;;11.92;100.00
54994;BME280;40891;47.242;8.648;2023-04-23T04:45:57;95878.78;;;11.74;100.00
54994;BME280;40891;47.242;8.648;2023-04-23T04:48:23;95881.78;;;11.70;100.00
54994;BME280;40891;47.242;8.648;2023-04-23T04:50:49;95885.56;;;11.82;100.00
54994;BME280;40891;47.242;8.648;2023-04-23T04:53:14;95882.19;;;11.78;100.00
54994;BME280;40891;47.242;8.648;2023-04-23T04:55:40;95883.56;;;11.82;100.00
54994;BME280;40891;47.242;8.648;2023-04-23T04:58:05;95873.59;;;11.90;100.00
54994;BME280;40891;47.242;8.648;2023-04-23T05:00:31;95875.34;;;11.88;100.00
54994;BME280;40891;47.242;8.648;2023-04-23T05:02:57;95877.63;;;11.89;100.00
54994;BME280;40891;47.242;8.648;2023-04-23T05:05:23;95874.22;;;11.94;100.00
54994;BME280;40891;47.242;8.648;2023-04-23T05:07:50;95878.66;;;12.01;100.00
54994;BME280;40891;47.242;8.648;2023-04-23T05:10:15;95880.50;;;12.04;100.00
54994;BME280;40891;47.242;8.648;2023-04-23T05:12:41;95880.28;;;12.07;100.00
54994;BME280;40891;47.242;8.648;2023-04-23T05:15:09;95885.50;;;12.14;100.00
54994;BME280;40891;47.242;8.648;2023-04-23T05:17:36;95875.25;;;12.20;100.00
54994;BME280;40891;47.242;8.648;2023-04-23T05:20:01;95876.84;;;12.12;100.00
54994;BME280;40891;47.242;8.648;2023-04-23T05:22:27;95875.25;;;12.20;100.00
54994;BME280;40891;47.242;8.648;2023-04-23T05:24:52;95871.00;;;12.10;100.00
54994;BME280;40891;47.242;8.648;2023-04-23T05:27:18;95870.41;;;12.06;100.00
54994;BME280;40891;47.242;8.648;2023-04-23T05:29:43;95879.28;;;12.19;100.00
54994;BME280;40891;47.242;8.648;2023-04-23T05:32:09;95885.94;;;12.22;100.00
54994;BME280;40891;47.242;8.648;2023-04-23T05:34:34;95886.16;;;12.09;100.00
54994;BME280;40891;47.242;8.648;2023-04-23T05:37:01;95878.69;;;12.15;100.00
54994;BME280;40891;47.242;8.648;2023-04-23T05:39:26;95881.84;;;12.08;100.00
54994;BME280;40891;47.242;8.648;2023-04-23T05:41:52;95888.38;;;12.05;100.00
54994;BME280;40891;47.242;8.648;2023-04-23T05:44:17;95881.56;;;12.06;100.00
54994;BME280;40891;47.242;8.648;2023-04-23T05:46:42;95886.44;;;12.11;100.00
54994;BME280;40891;47.242;8.648;2023-04-23T05:49:08;95883.22;;;12.13;100.00
54994;BME280;40891;47.242;8.648;2023-04-23T05:51:33;95886.78;;;12.13;100.00
54994;BME280;40891;47.242;8.648;2023-04-23T05:53:58;95887.66;;;12.19;100.00
54994;BME280;40891;47.242;8.648;2023-04-23T05:56:24;95887.47;;;12.23;100.00
54994;BME280;40891;47.242;8.648;2023-04-23T05:58:49;95890.47;;;12.34;100.00
54994;BME280;40891;47.242;8.648;2023-04-23T06:01:15;95883.25;;;12.27;100.00
54994;BME280;40891;47.242;8.648;2023-04-23T06:03:40;95882.19;;;12.25;100.00
54994;BME280;40891;47.242;8.648;2023-04-23T06:06:10;95881.41;;;12.24;100.00
54994;BME280;40891;47.242;8.648;2023-04-23T06:08:35;95883.91;;;12.22;100.00
54994;BME280;40891;47.242;8.648;2023-04-23T06:11:01;95882.19;;;12.25;100.00
54994;BME280;40891;47.242;8.648;2023-04-23T06:13:26;95886.34;;;12.29;100.00
54994;BME280;40891;47.242;8.648;2023-04-23T06:15:52;95885.94;;;12.22;100.00
54994;BME280;40891;47.242;8.648;2023-04-23T06:18:18;95888.06;;;12.27;100.00
54994;BME280;40891;47.242;8.648;2023-04-23T06:20:43;95875.06;;;12.24;100.00
54994;BME280;40891;47.242;8.648;2023-04-23T06:23:11;95878.84;;;12.36;100.00
54994;BME280;40891;47.242;8.648;2023-04-23T06:25:36;95877.81;;;12.48;100.00
54994;BME280;40891;47.242;8.648;2023-04-23T06:28:02;95861.97;;;12.54;100.00
54994;BME280;40891;47.242;8.648;2023-04-23T06:30:27;95866.78;;;12.53;100.00
54994;BME280;40891;47.242;8.648;2023-04-23T06:32:53;95860.16;;;12.65;100.00
54994;BME280;40891;47.242;8.648;2023-04-23T06:35:19;95861.22;;;12.68;100.00
54994;BME280;40891;47.242;8.648;2023-04-23T06:37:44;95865.94;;;12.76;100.00
54994;BME280;40891;47.242;8.648;2023-04-23T06:40:10;95852.69;;;12.86;100.00
54994;BME280;40891;47.242;8.648;2023-04-23T06:42:35;95855.28;;;12.89;100.00
54994;BME280;40891;47.242;8.648;2023-04-23T06:45:01;95853.47;;;13.01;100.00
54994;BME280;40891;47.242;8.648;2023-04-23T06:47:29;95846.59;;;13.02;100.00
54994;BME280;40891;47.242;8.648;2023-04-23T06:49:55;95845.28;;;13.12;100.00
54994;BME280;40891;47.242;8.648;2023-04-23T06:52:20;95846.34;;;13.15;100.00
54994;BME280;40891;47.242;8.648;2023-04-23T06:54:46;95842.00;;;13.14;100.00
54994;BME280;40891;47.242;8.648;2023-04-23T06:57:11;95840.88;;;13.20;100.00
54994;BME280;40891;47.242;8.648;2023-04-23T06:59:36;95834.19;;;13.32;100.00
54994;BME280;40891;47.242;8.648;2023-04-23T07:02:02;95831.69;;;13.34;100.00
54994;BME280;40891;47.242;8.648;2023-04-23T07:04:27;95826.00;;;13.43;100.00
54994;BME280;40891;47.242;8.648;2023-04-23T07:06:52;95814.66;;;13.67;100.00
54994;BME280;40891;47.242;8.648;2023-04-23T07:09:18;95816.53;;;13.76;100.00
54994;BME280;40891;47.242;8.648;2023-04-23T07:11:44;95819.28;;;13.90;100.00
54994;BME280;40891;47.242;8.648;2023-04-23T07:14:09;95812.63;;;13.88;100.00
54994;BME280;40891;47.242;8.648;2023-04-23T07:16:34;95815.97;;;13.92;100.00
54994;BME280;40891;47.242;8.648;2023-04-23T07:19:00;95805.94;;;14.00;100.00
54994;BME280;40891;47.242;8.648;2023-04-23T07:21:27;95811.03;;;14.01;100.00
54994;BME280;40891;47.242;8.648;2023-04-23T07:23:56;95806.91;;;13.97;100.00
54994;BME280;40891;47.242;8.648;2023-04-23T07:26:23;95799.16;;;14.06;100.00
54994;BME280;40891;47.242;8.648;2023-04-23T07:28:48;95796.00;;;14.19;97.85
54994;BME280;40891;47.242;8.648;2023-04-23T07:31:16;95786.28;;;14.35;98.21
54994;BME280;40891;47.242;8.648;2023-04-23T07:33:42;95780.94;;;14.57;95.99
54994;BME280;40891;47.242;8.648;2023-04-23T07:36:07;95772.88;;;14.64;96.77
54994;BME280;40891;47.242;8.648;2023-04-23T07:38:32;95776.81;;;14.78;96.00
54994;BME280;40891;47.242;8.648;2023-04-23T07:40:58;95778.91;;;14.88;98.21
54994;BME280;40891;47.242;8.648;2023-04-23T07:43:23;95781.97;;;14.85;96.85
54994;BME280;40891;47.242;8.648;2023-04-23T07:45:48;95774.38;;;14.65;96.41
54994;BME280;40891;47.242;8.648;2023-04-23T07:48:14;95766.22;;;14.62;96.46
54994;BME280;40891;47.242;8.648;2023-04-23T07:50:39;95769.25;;;14.58;95.65
54994;BME280;40891;47.242;8.648;2023-04-23T07:53:04;95775.34;;;14.57;96.50
54994;BME280;40891;47.242;8.648;2023-04-23T07:55:30;95769.13;;;14.47;96.26
54994;BME280;40891;47.242;8.648;2023-04-23T07:57:55;95763.91;;;14.35;95.61
54994;BME280;40891;47.242;8.648;2023-04-23T08:00:21;95767.81;;;14.22;95.43
54994;BME280;40891;47.242;8.648;2023-04-23T08:02:46;95763.16;;;14.14;96.00
54994;BME280;40891;47.242;8.648;2023-04-23T08:05:11;95760.56;;;14.10;96.98
54994;BME280;40891;47.242;8.648;2023-04-23T08:07:37;95758.19;;;14.23;97.03
54994;BME280;40891;47.242;8.648;2023-04-23T08:10:02;95756.78;;;14.59;96.05
54994;BME280;40891;47.242;8.648;2023-04-23T08:12:30;95749.84;;;14.80;92.35
54994;BME280;40891;47.242;8.648;2023-04-23T08:14:58;95742.91;;;15.02;93.32
54994;BME280;40891;47.242;8.648;2023-04-23T08:17:23;95745.56;;;15.22;89.95
54994;BME280;40891;47.242;8.648;2023-04-23T08:19:49;95736.22;;;15.30;90.73
54994;BME280;40891;47.242;8.648;2023-04-23T08:22:15;95729.84;;;15.30;87.86
54994;BME280;40891;47.242;8.648;2023-04-23T08:24:42;95727.38;;;15.43;88.31
54994;BME280;40891;47.242;8.648;2023-04-23T08:27:07;95733.88;;;15.54;86.62
54994;BME280;40891;47.242;8.648;2023-04-23T08:29:33;95727.09;;;15.83;84.78
54994;BME280;40891;47.242;8.648;2023-04-23T08:31:58;95725.16;;;16.11;84.67
54994;BME280;40891;47.242;8.648;2023-04-23T08:34:23;95719.44;;;16.59;84.79
54994;BME280;40891;47.242;8.648;2023-04-23T08:36:48;95715.13;;;16.86;85.84
54994;BME280;40891;47.242;8.648;2023-04-23T08:39:14;95724.56;;;16.94;77.84
54994;BME280;40891;47.242;8.648;2023-04-23T08:41:40;95724.28;;;16.92;80.50
54994;BME280;40891;47.242;8.648;2023-04-23T08:44:17;95718.66;;;17.14;76.65
54994;BME280;40891;47.242;8.648;2023-04-23T08:46:43;95724.03;;;17.12;73.98
54994;BME280;40891;47.242;8.648;2023-04-23T08:49:18;95722.25;;;17.09;72.79
54994;BME280;40891;47.242;8.648;2023-04-23T08:51:53;95718.16;;;17.16;72.77
54994;BME280;40891;47.242;8.648;2023-04-23T08:54:27;95722.47;;;17.33;75.28
54994;BME280;40891;47.242;8.648;2023-04-23T08:56:56;95712.97;;;17.70;74.22
54994;BME280;40891;47.242;8.648;2023-04-23T08:59:28;95712.84;;;17.97;70.90
54994;BME280;40891;47.242;8.648;2023-04-23T09:01:54;95716.41;;;18.03;70.62
54994;BME280;40891;47.242;8.648;2023-04-23T09:04:20;95709.88;;;18.30;66.78
54994;BME280;40891;47.242;8.648;2023-04-23T09:06:46;95706.81;;;18.69;65.73
54994;BME280;40891;47.242;8.648;2023-04-23T09:09:14;95718.09;;;18.69;66.03
54994;BME280;40891;47.242;8.648;2023-04-23T09:11:40;95712.88;;;18.84;62.76
54994;BME280;40891;47.242;8.648;2023-04-23T09:14:07;95716.56;;;19.03;63.19
54994;BME280;40891;47.242;8.648;2023-04-23T09:16:33;95706.81;;;19.05;59.18
54994;BME280;40891;47.242;8.648;2023-04-23T09:18:58;95702.22;;;19.01;61.30
54994;BME280;40891;47.242;8.648;2023-04-23T09:21:23;95702.69;;;19.06;60.77
54994;BME280;40891;47.242;8.648;2023-04-23T09:23:50;95694.59;;;19.75;58.10
54994;BME280;40891;47.242;8.648;2023-04-23T09:26:20;95696.06;;;19.81;55.09
54994;BME280;40891;47.242;8.648;2023-04-23T09:28:49;95691.81;;;20.12;53.63
54994;BME280;40891;47.242;8.648;2023-04-23T09:31:24;95695.25;;;20.05;54.44
54994;BME280;40891;47.242;8.648;2023-04-23T09:33:53;95684.41;;;20.09;54.51
54994;BME280;40891;47.242;8.648;2023-04-23T09:36:22;95680.50;;;20.36;54.61
54994;BME280;40891;47.242;8.648;2023-04-23T09:38:55;95666.94;;;20.98;54.79
54994;BME280;40891;47.242;8.648;2023-04-23T09:41:26;95669.66;;;21.22;53.89
54994;BME280;40891;47.242;8.648;2023-04-23T09:43:55;95655.16;;;21.13;51.16
54994;BME280;40891;47.242;8.648;2023-04-23T09:46:38;95657.06;;;21.36;52.65
54994;BME280;40891;47.242;8.648;2023-04-23T09:49:05;95646.94;;;22.06;50.98
54994;BME280;40891;47.242;8.648;2023-04-23T09:51:34;95643.13;;;21.78;47.65
54994;BME280;40891;47.242;8.648;2023-04-23T09:54:01;95638.00;;;22.02;48.24
54994;BME280;40891;47.242;8.648;2023-04-23T09:56:29;95626.03;;;21.83;46.68
54994;BME280;40891;47.242;8.648;2023-04-23T09:58:55;95624.66;;;22.23;46.59
54994;BME280;40891;47.242;8.648;2023-04-23T10:01:27;95615.94;;;22.55;45.77
54994;BME280;40891;47.242;8.648;2023-04-23T10:03:52;95620.91;;;22.42;45.05
54994;BME280;40891;47.242;8.648;2023-04-23T10:06:18;95617.09;;;22.39;48.75
54994;BME280;40891;47.242;8.648;2023-04-23T10:08:45;95613.53;;;22.59;46.08
54994;BME280;40891;47.242;8.648;2023-04-23T10:11:10;95617.94;;;22.81;46.81
54994;BME280;40891;47.242;8.648;2023-04-23T10:13:36;95615.25;;;23.73;44.01
54994;BME280;40891;47.242;8.648;2023-04-23T10:16:03;95614.91;;;23.84;42.44
54994;BME280;40891;47.242;8.648;2023-04-23T10:18:29;95612.19;;;23.35;42.62
54994;BME280;40891;47.242;8.648;2023-04-23T10:20:56;95606.41;;;23.84;43.70
54994;BME280;40891;47.242;8.648;2023-04-23T10:23:23;95603.91;;;23.81;43.38
54994;BME280;40891;47.242;8.648;2023-04-23T10:25:52;95605.78;;;24.14;44.16
54994;BME280;40891;47.242;8.648;2023-04-23T10:28:21;95595.88;;;24.51;42.55
54994;BME280;40891;47.242;8.648;2023-04-23T10:30:53;95598.94;;;24.60;42.92
54994;BME280;40891;47.242;8.648;2023-04-23T10:33:19;95587.16;;;24.49;42.65
54994;BME280;40891;47.242;8.648;2023-04-23T10:35:46;95580.72;;;24.56;42.62
54994;BME280;40891;47.242;8.648;2023-04-23T10:38:12;95584.44;;;24.20;44.18
54994;BME280;40891;47.242;8.648;2023-04-23T10:40:39;95572.34;;;24.43;45.33
54994;BME280;40891;47.242;8.648;2023-04-23T10:43:07;95563.91;;;24.95;42.58
54994;BME280;40891;47.242;8.648;2023-04-23T10:45:33;95563.16;;;24.95;42.42
54994;BME280;40891;47.242;8.648;2023-04-23T10:47:58;95561.06;;;25.11;41.51
54994;BME280;40891;47.242;8.648;2023-04-23T10:50:28;95564.06;;;25.35;41.84
54994;BME280;40891;47.242;8.648;2023-04-23T10:52:54;95554.59;;;25.55;40.86
54994;BME280;40891;47.242;8.648;2023-04-23T10:55:28;95544.03;;;26.60;38.51
54994;BME280;40891;47.242;8.648;2023-04-23T10:58:04;95550.91;;;27.73;32.45
54994;BME280;40891;47.242;8.648;2023-04-23T11:06:03;95535.56;;;30.72;28.39
54994;BME280;40891;47.242;8.648;2023-04-23T11:08:29;95531.78;;;31.50;27.92
54994;BME280;40891;47.242;8.648;2023-04-23T11:10:58;95528.66;;;32.21;26.10
54994;BME280;40891;47.242;8.648;2023-04-23T11:13:28;95536.50;;;32.09;27.74
54994;BME280;40891;47.242;8.648;2023-04-23T11:16:12;95527.91;;;32.54;27.32
54994;BME280;40891;47.242;8.648;2023-04-23T11:18:57;95518.13;;;31.93;28.27
54994;BME280;40891;47.242;8.648;2023-04-23T11:21:58;95522.59;;;32.83;26.86
54994;BME280;40891;47.242;8.648;2023-04-23T11:24:26;95519.25;;;33.10;26.96
54994;BME280;40891;47.242;8.648;2023-04-23T11:26:51;95519.63;;;33.62;26.15
54994;BME280;40891;47.242;8.648;2023-04-23T11:29:21;95524.13;;;33.53;25.55
54994;BME280;40891;47.242;8.648;2023-04-23T11:31:47;95525.09;;;33.70;26.25
54994;BME280;40891;47.242;8.648;2023-04-23T11:34:13;95510.31;;;32.94;27.17
54994;BME280;40891;47.242;8.648;2023-04-23T11:36:39;95512.94;;;32.67;26.31
54994;BME280;40891;47.242;8.648;2023-04-23T11:39:04;95497.19;;;32.91;26.05
54994;BME280;40891;47.242;8.648;2023-04-23T11:41:30;95500.16;;;34.11;25.61
54994;BME280;40891;47.242;8.648;2023-04-23T11:43:55;95501.41;;;33.71;24.99
54994;BME280;40891;47.242;8.648;2023-04-23T11:46:22;95498.41;;;34.81;23.57
54994;BME280;40891;47.242;8.648;2023-04-23T11:48:48;95499.53;;;33.52;24.33
54994;BME280;40891;47.242;8.648;2023-04-23T11:51:13;95491.28;;;34.32;24.98
54994;BME280;40891;47.242;8.648;2023-04-23T11:53:45;95495.22;;;31.84;26.32
54994;BME280;40891;47.242;8.648;2023-04-23T11:56:10;95498.06;;;31.20;28.43
54994;BME280;40891;47.242;8.648;2023-04-23T11:58:36;95489.41;;;32.38;27.44
54994;BME280;40891;47.242;8.648;2023-04-23T12:01:01;95487.81;;;33.85;26.09
54994;BME280;40891;47.242;8.648;2023-04-23T12:03:26;95477.31;;;34.40;23.96
54994;BME280;40891;47.242;8.648;2023-04-23T12:05:53;95472.31;;;36.31;22.20
54994;BME280;40891;47.242;8.648;2023-04-23T12:08:20;95470.88;;;36.16;22.66
54994;BME280;40891;47.242;8.648;2023-04-23T12:10:59;95468.66;;;35.88;21.99
54994;BME280;40891;47.242;8.648;2023-04-23T12:13:29;95464.03;;;36.39;20.63
54994;BME280;40891;47.242;8.648;2023-04-23T12:15:56;95467.25;;;36.02;21.96
54994;BME280;40891;47.242;8.648;2023-04-23T12:18:30;95465.28;;;35.78;21.22
54994;BME280;40891;47.242;8.648;2023-04-23T12:21:12;95459.81;;;35.70;21.72
54994;BME280;40891;47.242;8.648;2023-04-23T12:23:40;95454.47;;;35.65;21.74
54994;BME280;40891;47.242;8.648;2023-04-23T12:26:13;95458.91;;;34.86;23.52
54994;BME280;40891;47.242;8.648;2023-04-23T12:28:58;95452.97;;;36.06;22.45
54994;BME280;40891;47.242;8.648;2023-04-23T12:31:25;95442.59;;;36.60;20.68
54994;BME280;40891;47.242;8.648;2023-04-23T12:34:07;95435.75;;;36.69;20.36
54994;BME280;40891;47.242;8.648;2023-04-23T12:36:34;95438.84;;;36.57;21.45
54994;BME280;40891;47.242;8.648;2023-04-23T12:41:44;95423.81;;;36.92;20.96
54994;BME280;40891;47.242;8.648;2023-04-23T12:44:10;95420.84;;;36.30;21.31
54994;BME280;40891;47.242;8.648;2023-04-23T12:46:35;95423.13;;;36.78;21.63
54994;BME280;40891;47.242;8.648;2023-04-23T12:49:01;95423.69;;;37.70;19.79
54994;BME280;40891;47.242;8.648;2023-04-23T12:51:26;95418.47;;;36.71;20.09
54994;BME280;40891;47.242;8.648;2023-04-23T12:53:51;95425.44;;;36.05;21.08
54994;BME280;40891;47.242;8.648;2023-04-23T12:56:16;95420.41;;;35.63;21.28
54994;BME280;40891;47.242;8.648;2023-04-23T12:58:42;95420.34;;;35.77;21.62
54994;BME280;40891;47.242;8.648;2023-04-23T13:01:07;95418.25;;;34.68;22.83